createdAt,value
2022-08-29T00:00:33.626Z,7.70
2022-08-29T00:03:08.368Z,8.60
2022-08-29T00:05:40.078Z,7.80
2022-08-29T00:08:11.815Z,7.35
2022-08-29T00:10:41.724Z,7.18
2022-08-29T00:13:13.484Z,7.53
2022-08-29T00:15:44.977Z,7.80
2022-08-29T00:18:15.236Z,7.55
2022-08-29T00:20:44.388Z,8.15
2022-08-29T00:23:14.027Z,7.68
2022-08-29T00:25:43.339Z,7.95
2022-08-29T00:28:13.347Z,7.55
2022-08-29T00:30:43.157Z,7.70
2022-08-29T00:33:12.177Z,8.43
2022-08-29T00:35:43.213Z,7.93
2022-08-29T00:38:14.957Z,7.90
2022-08-29T00:40:51.731Z,8.13
2022-08-29T00:43:25.798Z,8.43
2022-08-29T00:46:04.005Z,7.80
2022-08-29T00:48:36.473Z,7.97
2022-08-29T00:51:09.289Z,8.05
2022-08-29T00:53:42.259Z,8.32
2022-08-29T00:56:14.181Z,7.93
2022-08-29T00:58:47.759Z,7.78
2022-08-29T01:01:17.165Z,7.80
2022-08-29T01:03:48.634Z,8.02
2022-08-29T01:06:17.337Z,8.15
2022-08-29T01:08:46.305Z,8.13
2022-08-29T01:11:36.238Z,7.57
2022-08-29T01:14:06.630Z,8.20
2022-08-29T01:16:37.145Z,7.82
2022-08-29T01:19:13.182Z,8.05
2022-08-29T01:21:48.619Z,7.60
2022-08-29T01:24:37.134Z,7.57
2022-08-29T01:27:05.468Z,8.40
2022-08-29T01:29:34.850Z,8.15
2022-08-29T01:32:03.344Z,8.10
2022-08-29T01:34:32.514Z,7.43
2022-08-29T01:37:03.013Z,7.97
2022-08-29T01:39:35.938Z,7.88
2022-08-29T01:42:07.745Z,7.60
2022-08-29T01:44:37.485Z,7.68
2022-08-29T01:47:07.190Z,7.90
2022-08-29T01:49:40.760Z,7.63
2022-08-29T01:52:10.301Z,7.97
2022-08-29T01:54:41.746Z,8.38
2022-08-29T01:57:13.079Z,8.73
2022-08-29T01:59:43.310Z,8.60
2022-08-29T02:02:17.318Z,8.20
2022-08-29T02:04:48.882Z,8.25
2022-08-29T02:07:19.504Z,8.20
2022-08-29T02:09:49.800Z,8.40
2022-08-29T02:12:20.843Z,8.30
2022-08-29T02:14:49.423Z,8.80
2022-08-29T02:17:18.971Z,8.95
2022-08-29T02:19:47.548Z,8.27
2022-08-29T02:22:17.801Z,8.35
2022-08-29T02:24:46.289Z,7.78
2022-08-29T02:27:16.838Z,8.52
2022-08-29T02:29:45.281Z,8.32
2022-08-29T02:32:15.914Z,8.73
2022-08-29T02:34:47.528Z,8.80
2022-08-29T02:37:17.991Z,8.95
2022-08-29T02:39:46.650Z,8.65
2022-08-29T02:42:16.853Z,8.82
2022-08-29T02:44:45.622Z,8.48
2022-08-29T02:47:14.386Z,12.25
2022-08-29T02:49:43.765Z,13.07
2022-08-29T02:52:13.363Z,12.50
2022-08-29T02:54:41.702Z,12.93
2022-08-29T02:57:10.955Z,13.02
2022-08-29T02:59:40.630Z,12.85
2022-08-29T03:02:10.054Z,13.23
2022-08-29T03:04:38.657Z,13.82
2022-08-29T03:07:06.975Z,13.70
2022-08-29T03:09:36.318Z,17.13
2022-08-29T03:12:05.173Z,15.85
2022-08-29T03:14:34.466Z,15.95
2022-08-29T03:17:04.254Z,16.55
2022-08-29T03:19:37.388Z,15.77
2022-08-29T03:22:06.455Z,17.77
2022-08-29T03:24:36.025Z,16.83
2022-08-29T03:27:05.389Z,19.52
2022-08-29T03:29:34.192Z,19.25
2022-08-29T03:32:05.311Z,21.05
2022-08-29T03:34:34.214Z,19.33
2022-08-29T03:37:02.539Z,23.90
2022-08-29T03:39:32.186Z,23.48
2022-08-29T03:42:00.565Z,23.75
2022-08-29T03:44:29.580Z,21.58
2022-08-29T03:46:58.031Z,22.38
2022-08-29T03:49:28.833Z,23.33
2022-08-29T03:51:57.639Z,20.50
2022-08-29T03:54:26.054Z,20.33
2022-08-29T03:56:54.853Z,22.65
2022-08-29T03:59:24.229Z,21.73
2022-08-29T04:01:53.353Z,21.63
2022-08-29T04:04:39.826Z,20.85
2022-08-29T04:07:13.161Z,22.45
2022-08-29T04:09:43.154Z,22.88
2022-08-29T04:12:13.175Z,20.90
2022-08-29T04:14:43.139Z,23.50
2022-08-29T04:17:12.316Z,21.23
2022-08-29T04:19:41.410Z,23.35
2022-08-29T04:22:11.113Z,19.88
2022-08-29T04:24:40.141Z,19.35
2022-08-29T04:27:08.459Z,20.55
2022-08-29T04:29:38.626Z,20.75
2022-08-29T04:32:07.442Z,20.40
2022-08-29T04:34:36.113Z,19.23
2022-08-29T04:37:04.806Z,20.85
2022-08-29T04:39:35.729Z,18.33
2022-08-29T04:42:04.349Z,19.77
2022-08-29T04:44:34.449Z,18.73
2022-08-29T04:47:02.742Z,20.42
2022-08-29T04:49:31.827Z,18.38
2022-08-29T04:52:00.173Z,18.27
2022-08-29T04:54:29.527Z,16.88
2022-08-29T04:57:05.006Z,20.85
2022-08-29T04:59:34.037Z,19.92
2022-08-29T05:02:02.543Z,19.27
2022-08-29T05:04:31.829Z,19.33
2022-08-29T05:07:00.290Z,18.27
2022-08-29T05:09:29.572Z,17.70
2022-08-29T05:11:59.491Z,17.50
2022-08-29T05:14:28.380Z,18.83
2022-08-29T05:16:57.102Z,18.77
2022-08-29T05:19:25.390Z,19.00
2022-08-29T05:21:58.308Z,17.42
2022-08-29T05:24:26.615Z,19.38
2022-08-29T05:26:55.639Z,18.15
2022-08-29T05:29:25.503Z,15.73
2022-08-29T05:31:53.826Z,15.85
2022-08-29T05:34:34.034Z,17.15
2022-08-29T05:37:05.247Z,21.67
2022-08-29T05:39:34.561Z,21.65
2022-08-29T05:42:03.309Z,21.27
2022-08-29T05:44:35.378Z,20.42
2022-08-29T05:47:05.368Z,19.33
2022-08-29T05:49:37.172Z,17.10
2022-08-29T05:52:06.637Z,19.63
2022-08-29T05:54:37.918Z,20.13
2022-08-29T05:57:06.861Z,26.52
2022-08-29T05:59:36.977Z,21.77
2022-08-29T06:02:08.459Z,19.75
2022-08-29T06:04:36.894Z,23.83
2022-08-29T06:07:06.978Z,20.88
2022-08-29T06:09:36.435Z,19.73
2022-08-29T06:12:06.182Z,23.58
2022-08-29T06:14:36.215Z,20.25
2022-08-29T06:17:08.080Z,24.30
2022-08-29T06:19:39.473Z,24.77
2022-08-29T06:22:10.284Z,29.08
2022-08-29T06:24:44.383Z,22.58
2022-08-29T06:27:14.710Z,21.75
2022-08-29T06:29:44.447Z,24.00
2022-08-29T06:32:13.431Z,25.10
2022-08-29T06:34:42.173Z,17.75
2022-08-29T06:37:10.778Z,21.23
2022-08-29T06:39:39.806Z,23.83
2022-08-29T06:42:08.456Z,21.83
2022-08-29T06:44:40.188Z,30.10
2022-08-29T06:47:12.734Z,32.35
2022-08-29T06:49:41.329Z,26.17
2022-08-29T06:52:10.023Z,24.83
2022-08-29T06:54:38.854Z,28.42
2022-08-29T06:57:07.303Z,25.98
2022-08-29T06:59:36.884Z,22.00
2022-08-29T07:02:05.457Z,24.20
2022-08-29T07:04:35.625Z,17.77
2022-08-29T07:07:05.249Z,19.38
2022-08-29T07:09:34.383Z,18.73
2022-08-29T07:12:03.114Z,20.88
2022-08-29T07:14:32.001Z,23.95
2022-08-29T07:17:00.707Z,21.70
2022-08-29T07:19:29.824Z,19.42
2022-08-29T07:22:00.527Z,17.80
2022-08-29T07:24:29.555Z,20.35
2022-08-29T07:26:57.923Z,20.73
2022-08-29T07:29:27.067Z,25.10
2022-08-29T07:31:55.896Z,22.77
2022-08-29T07:34:24.292Z,22.85
2022-08-29T07:36:53.492Z,21.00
2022-08-29T07:39:24.562Z,24.48
2022-08-29T07:41:53.009Z,23.08
2022-08-29T07:44:21.809Z,23.10
2022-08-29T07:46:50.641Z,24.58
2022-08-29T07:49:19.289Z,24.30
2022-08-29T07:51:48.312Z,22.00
2022-08-29T07:54:18.814Z,23.20
2022-08-29T07:56:49.831Z,18.17
2022-08-29T07:59:20.182Z,19.38
2022-08-29T08:01:49.714Z,19.33
2022-08-29T08:04:18.252Z,20.75
2022-08-29T08:06:48.110Z,26.52
2022-08-29T08:09:16.512Z,20.95
2022-08-29T08:11:44.867Z,21.00
2022-08-29T08:14:15.143Z,21.45
2022-08-29T08:16:44.845Z,23.27
2022-08-29T08:19:14.127Z,22.30
2022-08-29T08:21:49.547Z,25.58
2022-08-29T08:24:19.989Z,25.27
2022-08-29T08:26:50.250Z,22.67
2022-08-29T08:29:19.954Z,26.48
2022-08-29T08:31:51.984Z,18.30
2022-08-29T08:34:20.722Z,20.45
2022-08-29T08:36:50.443Z,19.88
2022-08-29T08:39:20.936Z,20.40
2022-08-29T08:41:57.601Z,23.27
2022-08-29T08:44:51.467Z,22.25
2022-08-29T08:47:27.170Z,21.30
2022-08-29T08:50:01.066Z,24.60
2022-08-29T08:52:38.252Z,23.73
2022-08-29T08:55:15.463Z,25.23
2022-08-29T08:57:51.106Z,25.80
2022-08-29T09:00:21.611Z,27.83
2022-08-29T09:03:03.788Z,28.50
2022-08-29T09:05:48.589Z,28.10
2022-08-29T09:08:30.259Z,26.98
2022-08-29T09:11:04.562Z,27.00
2022-08-29T09:13:46.699Z,27.30
2022-08-29T09:16:25.459Z,24.70
2022-08-29T09:18:57.245Z,26.67
2022-08-29T09:21:43.698Z,25.67
2022-08-29T09:24:21.730Z,25.38
2022-08-29T09:26:51.022Z,24.70
2022-08-29T09:29:21.134Z,23.13
2022-08-29T09:32:07.284Z,22.40
2022-08-29T09:35:04.438Z,21.77
2022-08-29T09:37:30.371Z,22.35
2022-08-29T09:40:02.831Z,24.23
2022-08-29T09:42:35.776Z,23.00
2022-08-29T09:45:16.171Z,23.52
2022-08-29T09:47:46.447Z,19.70
2022-08-29T09:50:24.906Z,20.20
2022-08-29T09:52:55.411Z,20.05
2022-08-29T09:55:29.263Z,19.95
2022-08-29T09:58:02.698Z,17.98
2022-08-29T10:00:35.162Z,18.15
2022-08-29T10:03:07.321Z,20.25
2022-08-29T10:05:41.726Z,20.08
2022-08-29T10:08:27.510Z,19.38
2022-08-29T10:10:58.230Z,19.45
2022-08-29T10:13:34.898Z,16.45
2022-08-29T10:16:13.821Z,20.25
2022-08-29T10:18:49.773Z,18.30
2022-08-29T10:21:30.130Z,17.90
2022-08-29T10:24:14.697Z,16.42
2022-08-29T10:26:53.373Z,16.40
2022-08-29T10:29:33.257Z,15.02
2022-08-29T10:32:17.091Z,15.48
2022-08-29T10:35:03.182Z,18.67
2022-08-29T10:37:44.867Z,15.32
2022-08-29T10:40:19.897Z,14.25
2022-08-29T10:42:53.491Z,15.82
2022-08-29T10:45:30.673Z,15.00
2022-08-29T10:48:05.939Z,13.88
2022-08-29T10:50:44.414Z,13.45
2022-08-29T10:53:20.244Z,14.00
2022-08-29T10:55:55.174Z,14.65
2022-08-29T10:58:37.263Z,14.02
2022-08-29T11:01:13.954Z,12.93
2022-08-29T11:03:49.099Z,13.18
2022-08-29T11:06:22.681Z,11.65
2022-08-29T11:08:58.679Z,13.55
2022-08-29T11:11:29.957Z,13.77
2022-08-29T11:14:05.979Z,12.30
2022-08-29T11:16:41.044Z,13.48
2022-08-29T11:19:17.864Z,10.88
2022-08-29T11:21:55.531Z,12.95
2022-08-29T11:24:34.377Z,11.70
2022-08-29T11:27:11.038Z,11.35
2022-08-29T11:29:47.190Z,10.32
2022-08-29T11:32:24.696Z,9.43
2022-08-29T11:35:08.287Z,10.75
2022-08-29T11:38:05.330Z,10.60
2022-08-29T11:41:26.364Z,8.70
2022-08-29T11:43:42.672Z,9.70
2022-08-29T11:46:14.302Z,8.88
2022-08-29T11:48:44.758Z,9.07
2022-08-29T11:51:31.412Z,8.80
2022-08-29T11:54:48.713Z,9.27
2022-08-29T11:57:53.782Z,8.80
2022-08-29T12:00:38.049Z,9.63
2022-08-29T12:03:47.468Z,9.15
2022-08-29T12:06:22.703Z,7.55
2022-08-29T12:09:01.733Z,7.75
2022-08-29T12:12:10.775Z,6.35
2022-08-29T12:14:42.328Z,6.45
2022-08-29T12:17:58.102Z,6.50
2022-08-29T12:20:40.504Z,5.68
2022-08-29T12:23:21.177Z,5.85
2022-08-29T12:26:09.411Z,6.63
2022-08-29T12:28:47.947Z,6.25
2022-08-29T12:31:31.254Z,7.35
2022-08-29T12:34:23.447Z,6.97
2022-08-29T12:37:28.012Z,7.40
2022-08-29T12:40:28.114Z,5.72
2022-08-29T12:43:12.794Z,4.75
2022-08-29T12:45:44.400Z,6.35
2022-08-29T12:48:21.083Z,5.88
2022-08-29T12:50:50.398Z,5.18
2022-08-29T12:53:20.554Z,5.20
2022-08-29T12:55:51.893Z,4.88
2022-08-29T12:58:38.142Z,5.30
2022-08-29T13:01:10.891Z,4.72
2022-08-29T13:03:41.403Z,4.32
2022-08-29T13:06:14.520Z,4.57
2022-08-29T13:08:43.809Z,4.53
2022-08-29T13:11:13.702Z,4.35
2022-08-29T13:13:42.487Z,4.30
2022-08-29T13:16:24.847Z,4.45
2022-08-29T13:19:10.175Z,4.20
2022-08-29T13:21:39.501Z,4.43
2022-08-29T13:24:13.919Z,3.70
2022-08-29T13:27:05.610Z,3.80
2022-08-29T13:29:38.750Z,4.10
2022-08-29T13:32:23.988Z,3.50
2022-08-29T13:35:09.007Z,3.88
2022-08-29T13:37:40.744Z,3.85
2022-08-29T13:40:32.821Z,3.50
2022-08-29T13:43:02.639Z,3.55
2022-08-29T13:45:31.453Z,3.45
2022-08-29T13:48:12.696Z,3.10
2022-08-29T13:50:42.637Z,3.58
2022-08-29T13:53:11.736Z,3.35
2022-08-29T13:55:42.928Z,3.08
2022-08-29T13:58:14.997Z,2.80
2022-08-29T14:00:44.317Z,2.97
2022-08-29T14:03:16.817Z,2.80
2022-08-29T14:05:48.545Z,2.75
2022-08-29T14:08:17.789Z,3.17
2022-08-29T14:10:47.026Z,3.25
2022-08-29T14:13:15.441Z,3.25
2022-08-29T14:15:44.817Z,3.10
2022-08-29T14:18:13.709Z,3.45
2022-08-29T14:20:42.105Z,3.22
2022-08-29T14:23:12.535Z,2.95
2022-08-29T14:25:40.908Z,3.10
2022-08-29T14:28:09.667Z,3.30
2022-08-29T14:30:42.823Z,2.88
2022-08-29T14:33:23.785Z,3.20
2022-08-29T14:35:53.087Z,3.40
2022-08-29T14:38:22.874Z,3.17
2022-08-29T14:40:52.302Z,3.13
2022-08-29T14:43:20.851Z,3.65
2022-08-29T14:45:50.184Z,3.08
2022-08-29T14:48:18.735Z,3.20
2022-08-29T14:50:47.887Z,3.15
2022-08-29T14:53:16.719Z,3.17
2022-08-29T14:55:46.440Z,3.08
2022-08-29T14:58:15.794Z,3.55
2022-08-29T15:00:44.366Z,2.97
2022-08-29T15:03:14.480Z,3.40
2022-08-29T15:05:43.692Z,3.13
2022-08-29T15:08:16.102Z,3.25
2022-08-29T15:10:45.885Z,3.15
2022-08-29T15:13:15.432Z,3.28
2022-08-29T15:15:44.317Z,3.38
2022-08-29T15:18:26.018Z,3.85
2022-08-29T15:21:04.745Z,3.40
2022-08-29T15:23:34.185Z,3.20
2022-08-29T15:26:04.334Z,3.10
2022-08-29T15:28:32.708Z,3.22
2022-08-29T15:31:01.919Z,3.17
2022-08-29T15:33:30.343Z,3.58
2022-08-29T15:35:59.594Z,3.70
2022-08-29T15:38:27.935Z,2.90
2022-08-29T15:40:57.163Z,3.10
2022-08-29T15:43:28.256Z,3.30
2022-08-29T15:45:59.895Z,3.40
2022-08-29T15:48:28.690Z,2.92
2022-08-29T15:50:57.090Z,3.00
2022-08-29T15:53:26.530Z,3.08
2022-08-29T15:55:54.876Z,3.30
2022-08-29T15:58:23.631Z,3.22
2022-08-29T16:00:53.678Z,3.15
2022-08-29T16:03:22.085Z,2.90
2022-08-29T16:05:51.334Z,3.20
2022-08-29T16:08:20.159Z,3.60
2022-08-29T16:10:50.777Z,3.17
2022-08-29T16:13:19.898Z,3.45
2022-08-29T16:15:49.093Z,3.35
2022-08-29T16:18:19.612Z,3.45
2022-08-29T16:20:48.466Z,3.53
2022-08-29T16:23:19.016Z,3.40
2022-08-29T16:25:49.322Z,3.95
2022-08-29T16:28:19.147Z,3.67
2022-08-29T16:30:50.070Z,3.50
2022-08-29T16:33:19.818Z,3.58
2022-08-29T16:35:48.761Z,3.38
2022-08-29T16:38:17.839Z,3.60
2022-08-29T16:40:46.790Z,3.65
2022-08-29T16:43:15.418Z,3.70
2022-08-29T16:45:44.578Z,3.60
2022-08-29T16:48:15.454Z,3.33
2022-08-29T16:50:47.788Z,3.58
2022-08-29T16:53:16.198Z,3.47
2022-08-29T16:55:45.383Z,3.22
2022-08-29T16:58:31.474Z,3.47
2022-08-29T17:01:00.858Z,3.13
2022-08-29T17:03:29.356Z,3.58
2022-08-29T17:05:59.963Z,3.22
2022-08-29T17:08:27.274Z,3.22
2022-08-29T17:10:55.741Z,3.05
2022-08-29T17:13:23.105Z,3.38
2022-08-29T17:15:50.875Z,3.35
2022-08-29T17:18:20.720Z,3.42
2022-08-29T17:20:49.387Z,3.55
2022-08-29T17:23:19.556Z,4.00
2022-08-29T17:25:47.999Z,3.60
2022-08-29T17:28:18.684Z,3.50
2022-08-29T17:30:56.053Z,3.58
2022-08-29T17:33:24.483Z,3.50
2022-08-29T17:35:54.047Z,3.45
2022-08-29T17:38:24.318Z,3.38
2022-08-29T17:40:57.410Z,3.40
2022-08-29T17:43:27.390Z,3.40
2022-08-29T17:45:57.719Z,3.90
2022-08-29T17:48:26.146Z,3.70
2022-08-29T17:50:54.550Z,3.60
2022-08-29T17:53:25.038Z,3.58
2022-08-29T17:55:53.892Z,3.90
2022-08-29T17:58:23.302Z,4.20
2022-08-29T18:00:52.378Z,4.38
2022-08-29T18:03:21.725Z,7.25
2022-08-29T18:05:50.131Z,4.50
2022-08-29T18:08:18.525Z,4.07
2022-08-29T18:10:48.247Z,3.85
2022-08-29T18:13:20.993Z,4.93
2022-08-29T18:15:52.690Z,4.47
2022-08-29T18:18:21.343Z,4.28
2022-08-29T18:20:50.808Z,4.57
2022-08-29T18:23:19.311Z,4.18
2022-08-29T18:25:49.497Z,3.80
2022-08-29T18:28:17.999Z,4.10
2022-08-29T18:30:46.902Z,4.40
2022-08-29T18:33:15.346Z,4.28
2022-08-29T18:35:44.151Z,4.60
2022-08-29T18:38:13.214Z,4.05
2022-08-29T18:40:41.862Z,4.03
2022-08-29T18:43:12.163Z,3.90
2022-08-29T18:45:43.340Z,4.00
2022-08-29T18:48:11.884Z,4.55
2022-08-29T18:50:41.137Z,4.30
2022-08-29T18:53:12.635Z,3.75
2022-08-29T18:55:47.257Z,4.25
2022-08-29T18:58:22.375Z,4.35
2022-08-29T19:00:51.192Z,4.15
2022-08-29T19:03:21.097Z,4.22
2022-08-29T19:05:52.267Z,3.85
2022-08-29T19:08:23.565Z,4.55
2022-08-29T19:10:53.941Z,4.93
2022-08-29T19:13:25.590Z,4.53
2022-08-29T19:15:56.938Z,3.92
2022-08-29T19:18:25.999Z,4.80
2022-08-29T19:21:02.733Z,4.32
2022-08-29T19:23:33.266Z,4.28
2022-08-29T19:26:04.078Z,4.20
2022-08-29T19:28:34.283Z,4.07
2022-08-29T19:31:04.508Z,4.70
2022-08-29T19:33:34.154Z,4.40
2022-08-29T19:36:03.872Z,4.55
2022-08-29T19:38:32.839Z,4.05
2022-08-29T19:41:01.627Z,4.50
2022-08-29T19:43:33.430Z,4.68
2022-08-29T19:46:09.717Z,4.95
2022-08-29T19:48:39.268Z,5.03
2022-08-29T19:51:10.475Z,4.95
2022-08-29T19:53:42.808Z,4.85
2022-08-29T19:56:13.679Z,4.72
2022-08-29T19:58:42.633Z,5.50
2022-08-29T20:01:12.817Z,5.25
2022-08-29T20:03:42.625Z,4.70
2022-08-29T20:06:12.244Z,5.28
2022-08-29T20:08:42.996Z,5.30
2022-08-29T20:11:12.624Z,4.90
2022-08-29T20:13:42.244Z,5.10
2022-08-29T20:16:16.873Z,5.35
2022-08-29T20:18:47.394Z,5.00
2022-08-29T20:21:19.222Z,4.47
2022-08-29T20:23:49.448Z,5.47
2022-08-29T20:26:19.285Z,5.75
2022-08-29T20:28:49.432Z,5.25
2022-08-29T20:31:20.318Z,5.05
2022-08-29T20:33:49.569Z,5.10
2022-08-29T20:36:38.980Z,5.65
2022-08-29T20:39:08.738Z,5.57
2022-08-29T20:41:37.845Z,5.28
2022-08-29T20:44:09.970Z,5.70
2022-08-29T20:46:41.253Z,5.28
2022-08-29T20:49:13.862Z,5.70
2022-08-29T20:51:44.859Z,5.55
2022-08-29T20:54:14.185Z,5.80
2022-08-29T20:56:42.970Z,5.20
2022-08-29T20:59:11.533Z,5.40
2022-08-29T21:01:41.690Z,5.75
2022-08-29T21:04:29.571Z,5.97
2022-08-29T21:07:00.552Z,5.40
2022-08-29T21:09:29.463Z,5.45
2022-08-29T21:11:58.842Z,5.47
2022-08-29T21:14:28.448Z,5.88
2022-08-29T21:16:58.662Z,5.43
2022-08-29T21:19:30.608Z,5.25
2022-08-29T21:22:01.032Z,5.55
2022-08-29T21:24:31.374Z,5.75
2022-08-29T21:27:00.135Z,5.65
2022-08-29T21:29:28.750Z,5.35
2022-08-29T21:31:59.202Z,5.30
2022-08-29T21:34:27.630Z,5.65
2022-08-29T21:36:56.777Z,5.45
2022-08-29T21:39:28.563Z,6.28
2022-08-29T21:42:02.698Z,5.90
2022-08-29T21:44:31.959Z,6.25
2022-08-29T21:47:03.477Z,6.03
2022-08-29T21:49:31.863Z,5.45
2022-08-29T21:52:01.036Z,5.50
2022-08-29T21:54:30.187Z,6.07
2022-08-29T21:56:58.511Z,5.80
2022-08-29T21:59:28.638Z,6.78
2022-08-29T22:01:57.557Z,6.20
2022-08-29T22:04:28.901Z,6.00
2022-08-29T22:06:59.681Z,6.25
2022-08-29T22:09:29.731Z,6.47
2022-08-29T22:11:59.611Z,6.85
2022-08-29T22:14:42.986Z,6.55
2022-08-29T22:17:12.161Z,6.18
2022-08-29T22:19:41.978Z,6.30
2022-08-29T22:22:11.289Z,6.80
2022-08-29T22:24:39.717Z,6.30
2022-08-29T22:27:09.112Z,6.47
2022-08-29T22:29:38.003Z,6.93
2022-08-29T22:32:07.534Z,6.22
2022-08-29T22:34:35.942Z,6.63
2022-08-29T22:37:05.651Z,6.43
2022-08-29T22:39:34.840Z,6.22
2022-08-29T22:42:03.243Z,5.80
2022-08-29T22:44:59.829Z,6.40
2022-08-29T22:47:21.503Z,6.10
2022-08-29T22:49:49.818Z,6.20
2022-08-29T22:52:20.927Z,6.38
2022-08-29T22:54:49.747Z,6.55
2022-08-29T22:57:20.387Z,5.80
2022-08-29T22:59:49.540Z,6.35
2022-08-29T23:02:20.002Z,5.82
2022-08-29T23:04:50.324Z,6.10
2022-08-29T23:07:20.707Z,6.15
2022-08-29T23:09:51.039Z,6.60
2022-08-29T23:12:19.939Z,5.47
2022-08-29T23:14:48.832Z,6.22
2022-08-29T23:17:18.146Z,5.78
2022-08-29T23:19:47.117Z,6.20
2022-08-29T23:22:20.522Z,6.22
2022-08-29T23:24:53.797Z,6.97
2022-08-29T23:27:29.106Z,6.47
2022-08-29T23:29:58.420Z,6.97
2022-08-29T23:32:28.811Z,7.00
2022-08-29T23:34:57.734Z,6.88
2022-08-29T23:37:27.852Z,6.43
2022-08-29T23:39:56.681Z,5.90
2022-08-29T23:42:25.792Z,6.00
2022-08-29T23:44:54.979Z,6.05
2022-08-29T23:47:23.643Z,6.63
2022-08-29T23:49:53.034Z,6.75
2022-08-29T23:52:21.357Z,6.20
2022-08-29T23:54:51.663Z,6.90
2022-08-29T23:57:19.951Z,6.25
